createdAt,value
2023-02-16T00:00:28.940Z,97812.60
2023-02-16T00:03:19.198Z,97810.00
2023-02-16T00:05:47.475Z,97810.20
2023-02-16T00:08:15.467Z,97811.20
2023-02-16T00:11:03.708Z,97809.40
2023-02-16T00:13:53.067Z,97810.80
2023-02-16T00:16:22.351Z,97809.00
2023-02-16T00:18:50.779Z,97806.40
2023-02-16T00:21:19.021Z,97804.80
2023-02-16T00:23:48.443Z,97803.60
2023-02-16T00:26:24.158Z,97799.40
2023-02-16T00:28:53.184Z,97798.00
2023-02-16T00:31:24.056Z,97798.60
2023-02-16T00:33:52.161Z,97801.60
2023-02-16T00:36:21.584Z,97796.80
2023-02-16T00:38:49.578Z,97791.00
2023-02-16T00:41:37.900Z,97786.00
2023-02-16T00:44:06.997Z,97789.00
2023-02-16T00:46:35.021Z,97785.60
2023-02-16T00:49:04.157Z,97786.80
2023-02-16T00:51:32.244Z,97783.80
2023-02-16T00:54:00.298Z,97786.80
2023-02-16T00:56:28.948Z,97776.40
2023-02-16T00:58:57.033Z,97786.20
2023-02-16T01:01:25.218Z,97791.00
2023-02-16T01:03:53.317Z,97787.40
2023-02-16T01:06:40.670Z,97783.20
2023-02-16T01:09:35.827Z,97780.00
2023-02-16T01:12:05.824Z,97770.60
2023-02-16T01:14:33.833Z,97770.60
2023-02-16T01:17:01.899Z,97770.40
2023-02-16T01:19:29.878Z,97767.40
2023-02-16T01:21:58.091Z,97766.00
2023-02-16T01:24:29.299Z,97760.20
2023-02-16T01:26:57.323Z,97752.20
2023-02-16T01:29:25.377Z,97751.60
2023-02-16T01:31:53.467Z,97748.80
2023-02-16T01:34:21.755Z,97743.00
2023-02-16T01:36:49.838Z,97744.80
2023-02-16T01:39:19.070Z,97740.60
2023-02-16T01:41:59.672Z,97740.60
2023-02-16T01:44:30.688Z,97738.60
2023-02-16T01:47:25.275Z,97745.20
2023-02-16T01:49:53.258Z,97743.20
2023-02-16T01:52:55.717Z,97739.00
2023-02-16T01:55:55.168Z,97742.80
2023-02-16T01:58:23.231Z,97737.80
2023-02-16T02:00:56.849Z,97733.20
2023-02-16T02:03:48.771Z,97731.20
2023-02-16T02:06:20.010Z,97727.00
2023-02-16T02:08:58.530Z,97727.40
2023-02-16T02:11:32.763Z,97723.40
2023-02-16T02:14:05.949Z,97727.00
2023-02-16T02:16:34.304Z,97723.00
2023-02-16T02:19:02.581Z,97722.80
2023-02-16T02:22:01.212Z,97719.80
2023-02-16T02:24:35.419Z,97724.20
2023-02-16T02:27:07.903Z,97715.80
2023-02-16T02:29:40.537Z,97716.80
2023-02-16T02:32:17.965Z,97715.40
2023-02-16T02:35:00.511Z,97715.40
2023-02-16T02:37:50.361Z,97713.60
2023-02-16T02:40:24.430Z,97707.80
2023-02-16T02:43:27.936Z,97702.00
2023-02-16T02:46:05.503Z,97700.40
2023-02-16T02:48:34.162Z,97702.20
2023-02-16T02:51:28.730Z,97699.80
2023-02-16T02:54:22.648Z,97698.60
2023-02-16T02:57:29.433Z,97697.80
2023-02-16T03:00:20.373Z,97702.20
2023-02-16T03:02:50.186Z,97704.80
2023-02-16T03:05:18.425Z,97701.60
2023-02-16T03:07:46.796Z,97697.40
2023-02-16T03:10:41.572Z,97694.60
2023-02-16T03:13:22.640Z,97693.80
2023-02-16T03:15:50.724Z,97694.60
2023-02-16T03:18:37.396Z,97700.40
2023-02-16T03:21:24.330Z,97700.40
2023-02-16T03:24:11.177Z,97699.20
2023-02-16T03:26:57.907Z,97693.20
2023-02-16T03:29:26.009Z,97695.20
2023-02-16T03:31:54.311Z,97694.40
2023-02-16T03:34:22.352Z,97695.60
2023-02-16T03:36:53.772Z,97692.20
2023-02-16T03:39:21.846Z,97690.60
2023-02-16T03:41:50.533Z,97686.60
2023-02-16T03:44:19.567Z,97687.00
2023-02-16T03:46:49.686Z,97681.40
2023-02-16T03:49:18.657Z,97680.80
2023-02-16T03:51:46.737Z,97678.80
2023-02-16T03:54:14.842Z,97678.20
2023-02-16T03:56:42.938Z,97680.60
2023-02-16T03:59:10.940Z,97678.60
2023-02-16T04:01:38.983Z,97676.80
2023-02-16T04:04:07.178Z,97679.80
2023-02-16T04:06:35.238Z,97673.60
2023-02-16T04:09:03.455Z,97672.20
2023-02-16T04:11:50.051Z,97671.00
2023-02-16T04:14:18.321Z,97669.20
2023-02-16T04:16:46.791Z,97672.00
2023-02-16T04:19:15.072Z,97675.00
2023-02-16T04:21:43.198Z,97670.80
2023-02-16T04:24:11.263Z,97673.20
2023-02-16T04:26:39.233Z,97672.80
2023-02-16T04:29:07.286Z,97673.20
2023-02-16T04:31:35.420Z,97678.80
2023-02-16T04:34:03.619Z,97679.00
2023-02-16T04:36:31.824Z,97679.80
2023-02-16T04:39:00.110Z,97683.60
2023-02-16T04:41:28.073Z,97678.60
2023-02-16T04:43:56.137Z,97679.20
2023-02-16T04:46:24.254Z,97674.40
2023-02-16T04:48:52.389Z,97679.60
2023-02-16T04:51:20.440Z,97673.00
2023-02-16T04:53:48.592Z,97676.40
2023-02-16T04:56:16.757Z,97675.80
2023-02-16T04:58:44.779Z,97675.00
2023-02-16T05:01:20.397Z,97675.60
2023-02-16T05:03:48.582Z,97673.80
2023-02-16T05:06:16.727Z,97677.20
2023-02-16T05:08:45.053Z,97681.00
2023-02-16T05:11:31.911Z,97675.80
2023-02-16T05:14:18.468Z,97679.00
2023-02-16T05:16:46.545Z,97679.80
2023-02-16T05:19:14.685Z,97678.80
2023-02-16T05:21:42.862Z,97683.20
2023-02-16T05:24:11.452Z,97683.40
2023-02-16T05:26:40.116Z,97684.20
2023-02-16T05:29:08.504Z,97684.00
2023-02-16T05:31:36.659Z,97679.20
2023-02-16T05:34:04.780Z,97679.20
2023-02-16T05:36:32.897Z,97679.00
2023-02-16T05:39:00.901Z,97680.60
2023-02-16T05:41:28.938Z,97682.60
2023-02-16T05:44:01.691Z,97681.00
2023-02-16T05:46:32.676Z,97680.20
2023-02-16T05:49:01.017Z,97681.80
2023-02-16T05:51:29.140Z,97682.80
2023-02-16T05:53:57.269Z,97680.60
2023-02-16T05:56:25.551Z,97688.40
2023-02-16T05:58:53.980Z,97692.40
2023-02-16T06:01:22.136Z,97696.00
2023-02-16T06:03:50.194Z,97692.80
2023-02-16T06:06:18.322Z,97692.20
2023-02-16T06:08:46.463Z,97693.40
2023-02-16T06:11:32.936Z,97691.60
2023-02-16T06:14:02.687Z,97696.00
2023-02-16T06:16:31.216Z,97697.40
2023-02-16T06:18:59.326Z,97697.20
2023-02-16T06:21:27.625Z,97693.00
2023-02-16T06:23:55.553Z,97700.00
2023-02-16T06:26:23.775Z,97697.60
2023-02-16T06:28:51.946Z,97704.20
2023-02-16T06:31:20.100Z,97698.60
2023-02-16T06:33:48.213Z,97706.00
2023-02-16T06:36:16.439Z,97698.80
2023-02-16T06:38:44.447Z,97699.60
2023-02-16T06:41:12.731Z,97700.20
2023-02-16T06:43:40.812Z,97690.60
2023-02-16T06:46:08.873Z,97691.00
2023-02-16T06:48:36.964Z,97689.60
2023-02-16T06:51:05.577Z,97693.20
2023-02-16T06:53:33.870Z,97688.00
2023-02-16T06:56:01.860Z,97688.40
2023-02-16T06:58:29.979Z,97687.40
2023-02-16T07:00:58.067Z,97686.40
2023-02-16T07:03:26.253Z,97685.80
2023-02-16T07:05:54.426Z,97684.80
2023-02-16T07:08:22.521Z,97688.00
2023-02-16T07:10:50.716Z,97688.80
2023-02-16T07:13:18.873Z,97692.40
2023-02-16T07:15:46.883Z,97689.60
2023-02-16T07:18:15.208Z,97690.60
2023-02-16T07:20:43.184Z,97684.60
2023-02-16T07:23:11.318Z,97689.40
2023-02-16T07:25:39.307Z,97689.20
2023-02-16T07:28:07.398Z,97696.40
2023-02-16T07:30:36.208Z,97694.40
2023-02-16T07:33:04.474Z,97698.00
2023-02-16T07:35:35.817Z,97700.00
2023-02-16T07:38:04.933Z,97698.40
2023-02-16T07:40:33.120Z,97699.60
2023-02-16T07:43:02.336Z,97695.00
2023-02-16T07:45:32.738Z,97694.60
2023-02-16T07:48:01.495Z,97693.80
2023-02-16T07:50:29.593Z,97689.60
2023-02-16T07:52:57.635Z,97688.40
2023-02-16T07:55:25.836Z,97688.60
2023-02-16T07:57:56.983Z,97682.20
2023-02-16T08:00:25.242Z,97687.80
2023-02-16T08:02:53.550Z,97684.00
2023-02-16T08:05:22.295Z,97687.00
2023-02-16T08:07:50.395Z,97685.00
2023-02-16T08:10:18.711Z,97685.20
2023-02-16T08:12:46.937Z,97680.40
2023-02-16T08:15:15.061Z,97677.20
2023-02-16T08:17:43.834Z,97676.20
2023-02-16T08:20:12.433Z,97676.80
2023-02-16T08:22:40.625Z,97678.60
2023-02-16T08:25:08.815Z,97674.60
2023-02-16T08:29:50.129Z,97683.00
2023-02-16T08:32:18.398Z,97678.80
2023-02-16T08:34:46.491Z,97679.80
2023-02-16T08:37:14.532Z,97679.00
2023-02-16T08:39:42.689Z,97679.00
2023-02-16T08:42:12.041Z,97677.20
2023-02-16T08:44:40.989Z,97675.60
2023-02-16T08:47:09.596Z,97674.00
2023-02-16T08:49:39.428Z,97675.80
2023-02-16T08:52:07.619Z,97672.20
2023-02-16T08:54:36.367Z,97672.60
2023-02-16T08:57:04.847Z,97673.60
2023-02-16T08:59:36.006Z,97674.60
2023-02-16T09:02:04.214Z,97673.80
2023-02-16T09:04:32.312Z,97677.20
2023-02-16T09:07:00.492Z,97674.20
2023-02-16T09:09:28.874Z,97669.00
2023-02-16T09:11:58.272Z,97670.20
2023-02-16T09:14:26.651Z,97675.00
2023-02-16T09:16:54.943Z,97683.00
2023-02-16T09:19:23.079Z,97679.40
2023-02-16T09:21:52.102Z,97681.40
2023-02-16T09:24:20.127Z,97680.00
2023-02-16T09:26:48.584Z,97683.60
2023-02-16T09:29:18.428Z,97677.60
2023-02-16T09:31:46.576Z,97680.00
2023-02-16T09:34:18.531Z,97680.60
2023-02-16T09:36:47.470Z,97680.40
2023-02-16T09:39:17.195Z,97683.80
2023-02-16T09:42:16.109Z,97681.00
2023-02-16T09:45:02.802Z,97675.80
2023-02-16T09:47:34.900Z,97679.20
2023-02-16T09:50:06.460Z,97673.80
2023-02-16T09:52:44.563Z,97674.80
2023-02-16T09:55:16.775Z,97678.00
2023-02-16T09:57:47.025Z,97673.20
2023-02-16T10:00:23.665Z,97675.80
2023-02-16T10:03:00.850Z,97677.00
2023-02-16T10:05:44.681Z,97675.20
2023-02-16T10:08:38.987Z,97676.80
2023-02-16T10:11:45.641Z,97674.00
2023-02-16T10:14:32.728Z,97670.40
2023-02-16T10:17:18.784Z,97665.80
2023-02-16T10:19:56.777Z,97665.00
2023-02-16T10:22:40.660Z,97657.40
2023-02-16T10:25:12.882Z,97653.40
2023-02-16T10:27:42.669Z,97647.80
2023-02-16T10:30:18.958Z,97643.20
2023-02-16T10:32:54.279Z,97638.20
2023-02-16T10:35:28.619Z,97645.40
2023-02-16T10:38:07.718Z,97638.40
2023-02-16T10:40:51.028Z,97634.40
2023-02-16T10:43:19.302Z,97629.80
2023-02-16T10:45:55.097Z,97632.00
2023-02-16T10:48:23.716Z,97625.40
2023-02-16T10:50:58.876Z,97623.00
2023-02-16T10:53:37.322Z,97619.60
2023-02-16T10:56:46.658Z,97617.00
2023-02-16T10:59:17.057Z,97617.00
2023-02-16T11:01:50.447Z,97623.80
2023-02-16T11:04:37.071Z,97617.00
2023-02-16T11:07:08.555Z,97620.80
2023-02-16T11:09:37.174Z,97614.20
2023-02-16T11:12:34.477Z,97618.80
2023-02-16T11:15:06.285Z,97619.00
2023-02-16T11:18:08.202Z,97619.00
2023-02-16T11:20:42.329Z,97615.80
2023-02-16T11:23:17.443Z,97612.80
2023-02-16T11:26:02.550Z,97610.40
2023-02-16T11:28:38.265Z,97614.60
2023-02-16T11:31:09.606Z,97611.80
2023-02-16T11:33:38.219Z,97619.60
2023-02-16T11:36:35.498Z,97616.20
2023-02-16T11:39:14.766Z,97615.40
2023-02-16T11:42:00.601Z,97616.00
2023-02-16T11:44:49.092Z,97611.40
2023-02-16T11:47:31.580Z,97608.40
2023-02-16T11:50:21.765Z,97602.60
2023-02-16T11:52:51.706Z,97598.60
2023-02-16T11:55:33.588Z,97600.20
2023-02-16T11:58:29.445Z,97594.80
2023-02-16T12:01:26.398Z,97594.00
2023-02-16T12:04:32.612Z,97592.00
2023-02-16T12:07:20.504Z,97591.60
2023-02-16T12:09:57.955Z,97583.00
2023-02-16T12:12:45.011Z,97574.60
2023-02-16T12:15:17.223Z,97570.60
2023-02-16T12:17:48.904Z,97561.20
2023-02-16T12:20:28.155Z,97566.40
2023-02-16T12:23:03.041Z,97558.60
2023-02-16T12:25:38.377Z,97550.80
2023-02-16T12:28:58.358Z,97551.00
2023-02-16T12:31:51.501Z,97549.40
2023-02-16T12:34:37.010Z,97561.00
2023-02-16T12:37:30.139Z,97551.40
2023-02-16T12:40:04.290Z,97548.20
2023-02-16T12:43:09.519Z,97543.60
2023-02-16T12:45:39.655Z,97542.40
2023-02-16T12:48:08.641Z,97534.40
2023-02-16T12:50:37.103Z,97538.00
2023-02-16T12:53:20.326Z,97543.00
2023-02-16T12:55:57.247Z,97541.60
2023-02-16T12:58:42.697Z,97538.00
2023-02-16T13:01:12.330Z,97535.00
2023-02-16T13:03:44.783Z,97534.40
2023-02-16T13:06:33.936Z,97538.20
2023-02-16T13:09:34.319Z,97535.40
2023-02-16T13:12:31.674Z,97532.20
2023-02-16T13:15:05.661Z,97524.40
2023-02-16T13:18:26.392Z,97523.00
2023-02-16T13:20:59.332Z,97523.80
2023-02-16T13:23:27.312Z,97518.60
2023-02-16T13:26:05.748Z,97521.40
2023-02-16T13:28:38.900Z,97524.60
2023-02-16T13:31:44.828Z,97524.00
2023-02-16T13:34:32.064Z,97527.60
2023-02-16T13:37:05.963Z,97529.20
2023-02-16T13:40:00.600Z,97524.80
2023-02-16T13:42:47.136Z,97520.20
2023-02-16T13:45:20.132Z,97525.00
2023-02-16T13:47:48.174Z,97523.80
2023-02-16T13:50:22.400Z,97525.60
2023-02-16T13:52:53.385Z,97528.40
2023-02-16T13:55:32.386Z,97527.80
2023-02-16T13:58:12.730Z,97527.40
2023-02-16T14:00:43.015Z,97529.00
2023-02-16T14:03:20.219Z,97526.80
2023-02-16T14:05:53.102Z,97522.60
2023-02-16T14:08:25.831Z,97519.40
2023-02-16T14:10:53.957Z,97518.80
2023-02-16T14:13:32.071Z,97514.00
2023-02-16T14:16:11.604Z,97504.40
2023-02-16T14:18:46.115Z,97504.00
2023-02-16T14:21:37.505Z,97509.00
2023-02-16T14:24:10.332Z,97502.20
2023-02-16T14:26:52.684Z,97503.40
2023-02-16T14:29:24.193Z,97500.20
2023-02-16T14:32:12.794Z,97500.00
2023-02-16T14:34:43.219Z,97495.60
2023-02-16T14:37:17.640Z,97495.40
2023-02-16T14:40:07.090Z,97490.20
2023-02-16T14:42:35.602Z,97484.80
2023-02-16T14:45:42.993Z,97478.60
2023-02-16T14:48:36.456Z,97477.80
2023-02-16T14:51:40.464Z,97475.80
2023-02-16T14:54:38.969Z,97472.00
2023-02-16T14:57:25.801Z,97464.40
2023-02-16T15:00:26.565Z,97460.40
2023-02-16T15:03:02.258Z,97453.60
2023-02-16T15:05:34.501Z,97450.80
2023-02-16T15:08:11.700Z,97450.60
2023-02-16T15:10:39.796Z,97447.80
2023-02-16T15:13:07.994Z,97445.20
2023-02-16T15:15:50.938Z,97440.40
2023-02-16T15:18:20.991Z,97433.40
2023-02-16T15:20:51.404Z,97431.60
2023-02-16T15:23:24.711Z,97433.20
2023-02-16T15:25:58.770Z,97430.80
2023-02-16T15:28:37.508Z,97428.00
2023-02-16T15:31:07.443Z,97425.60
2023-02-16T15:33:39.184Z,97419.40
2023-02-16T15:36:18.117Z,97426.40
2023-02-16T15:38:52.487Z,97423.60
2023-02-16T15:41:26.975Z,97421.40
2023-02-16T15:43:55.889Z,97417.60
2023-02-16T15:46:38.040Z,97419.40
2023-02-16T15:49:26.523Z,97421.20
2023-02-16T15:51:55.543Z,97417.80
2023-02-16T15:54:32.099Z,97421.00
2023-02-16T15:57:00.788Z,97420.20
2023-02-16T15:59:35.785Z,97410.60
2023-02-16T16:02:14.857Z,97408.00
2023-02-16T16:04:46.239Z,97394.80
2023-02-16T16:07:19.490Z,97397.80
2023-02-16T16:09:47.686Z,97390.40
2023-02-16T16:12:16.955Z,97391.60
2023-02-16T16:14:56.116Z,97392.60
2023-02-16T16:17:29.887Z,97385.40
2023-02-16T16:19:58.905Z,97391.40
2023-02-16T16:22:33.127Z,97386.20
2023-02-16T16:25:01.585Z,97388.20
2023-02-16T16:27:36.060Z,97392.00
2023-02-16T16:30:22.990Z,97389.40
2023-02-16T16:33:05.629Z,97388.60
2023-02-16T16:35:54.184Z,97389.80
2023-02-16T16:38:48.477Z,97393.20
2023-02-16T16:41:27.555Z,97396.20
2023-02-16T16:43:56.358Z,97397.00
2023-02-16T16:46:26.207Z,97399.20
2023-02-16T16:49:00.433Z,97398.80
2023-02-16T16:51:31.915Z,97397.00
2023-02-16T16:54:10.691Z,97390.20
2023-02-16T16:56:40.311Z,97386.60
2023-02-16T16:59:08.402Z,97385.20
2023-02-16T17:01:36.587Z,97385.80
2023-02-16T17:04:04.718Z,97394.20
2023-02-16T17:06:32.903Z,97394.40
2023-02-16T17:09:02.514Z,97394.00
2023-02-16T17:11:35.261Z,97394.20
2023-02-16T17:14:10.572Z,97396.40
2023-02-16T17:16:41.237Z,97386.60
2023-02-16T17:19:13.343Z,97385.60
2023-02-16T17:21:41.690Z,97387.40
2023-02-16T17:24:10.337Z,97379.20
2023-02-16T17:26:38.502Z,97376.00
2023-02-16T17:29:06.988Z,97375.20
2023-02-16T17:31:35.303Z,97368.80
2023-02-16T17:34:03.589Z,97370.80
2023-02-16T17:36:31.623Z,97374.40
2023-02-16T17:38:59.976Z,97369.60
2023-02-16T17:41:29.153Z,97361.60
2023-02-16T17:43:57.230Z,97356.80
2023-02-16T17:46:26.884Z,97358.40
2023-02-16T17:48:58.200Z,97351.40
2023-02-16T17:51:26.409Z,97352.60
2023-02-16T17:53:54.921Z,97352.40
2023-02-16T17:56:23.883Z,97347.40
2023-02-16T17:58:51.950Z,97349.60
2023-02-16T18:01:20.260Z,97353.60
2023-02-16T18:03:48.579Z,97355.60
2023-02-16T18:06:18.570Z,97356.80
2023-02-16T18:08:46.848Z,97360.20
2023-02-16T18:11:14.942Z,97359.00
2023-02-16T18:13:43.061Z,97364.80
2023-02-16T18:16:19.015Z,97361.20
2023-02-16T18:18:47.225Z,97364.20
2023-02-16T18:21:17.700Z,97361.60
2023-02-16T18:23:47.331Z,97357.40
2023-02-16T18:26:16.650Z,97350.80
2023-02-16T18:28:45.185Z,97347.20
2023-02-16T18:31:14.629Z,97349.00
2023-02-16T18:33:43.021Z,97351.60
2023-02-16T18:36:11.149Z,97356.00
2023-02-16T18:38:39.863Z,97352.00
2023-02-16T18:41:09.275Z,97357.60
2023-02-16T18:43:37.356Z,97362.60
2023-02-16T18:46:09.057Z,97368.40
2023-02-16T18:48:37.323Z,97369.20
2023-02-16T18:51:09.121Z,97366.60
2023-02-16T18:53:40.689Z,97368.80
2023-02-16T18:56:09.419Z,97368.40
2023-02-16T18:58:41.516Z,97368.00
2023-02-16T19:01:29.620Z,97365.80
2023-02-16T19:03:57.887Z,97362.60
2023-02-16T19:06:26.151Z,97368.60
2023-02-16T19:08:54.211Z,97372.60
2023-02-16T19:11:22.514Z,97371.80
2023-02-16T19:13:50.530Z,97370.80
2023-02-16T19:16:18.663Z,97371.80
2023-02-16T19:18:46.730Z,97378.60
2023-02-16T19:21:15.501Z,97378.40
2023-02-16T19:23:43.896Z,97370.20
2023-02-16T19:26:13.388Z,97375.60
2023-02-16T19:28:42.080Z,97375.40
2023-02-16T19:31:17.079Z,97369.20
2023-02-16T19:33:45.649Z,97370.40
2023-02-16T19:36:14.072Z,97368.40
2023-02-16T19:38:42.240Z,97368.00
2023-02-16T19:41:15.597Z,97370.60
2023-02-16T19:43:43.881Z,97361.40
2023-02-16T19:46:12.301Z,97356.60
2023-02-16T19:48:40.788Z,97355.40
2023-02-16T19:51:09.465Z,97354.80
2023-02-16T19:53:37.909Z,97351.40
2023-02-16T19:56:07.358Z,97359.40
2023-02-16T19:58:35.519Z,97356.20
2023-02-16T20:01:08.424Z,97354.00
2023-02-16T20:03:37.856Z,97353.00
2023-02-16T20:06:24.432Z,97354.00
2023-02-16T20:08:52.890Z,97357.00
2023-02-16T20:11:22.276Z,97350.60
2023-02-16T20:13:50.991Z,97345.00
2023-02-16T20:16:20.006Z,97342.80
2023-02-16T20:18:48.681Z,97343.60
2023-02-16T20:21:19.007Z,97343.80
2023-02-16T20:23:49.016Z,97343.20
2023-02-16T20:26:26.286Z,97339.00
2023-02-16T20:28:54.682Z,97339.80
2023-02-16T20:31:24.468Z,97332.80
2023-02-16T20:33:52.874Z,97333.00
2023-02-16T20:36:21.146Z,97328.40
2023-02-16T20:38:50.400Z,97333.60
2023-02-16T20:41:19.138Z,97330.40
2023-02-16T20:43:47.415Z,97329.00
2023-02-16T20:46:15.725Z,97330.60
2023-02-16T20:48:46.031Z,97332.20
2023-02-16T20:51:14.286Z,97332.20
2023-02-16T20:53:42.449Z,97328.40
2023-02-16T20:56:21.850Z,97324.20
2023-02-16T20:58:50.934Z,97319.20
2023-02-16T21:01:24.451Z,97322.80
2023-02-16T21:03:52.694Z,97330.80
2023-02-16T21:06:20.932Z,97329.00
2023-02-16T21:08:49.110Z,97320.80
2023-02-16T21:11:17.601Z,97322.80
2023-02-16T21:13:45.710Z,97315.40
2023-02-16T21:16:14.831Z,97318.00
2023-02-16T21:18:43.043Z,97319.20
2023-02-16T21:21:15.723Z,97318.20
2023-02-16T21:23:48.907Z,97315.80
2023-02-16T21:26:17.391Z,97318.40
2023-02-16T21:28:45.662Z,97319.00
2023-02-16T21:31:16.322Z,97326.20
2023-02-16T21:33:44.654Z,97327.20
2023-02-16T21:36:14.811Z,97323.20
2023-02-16T21:38:43.284Z,97325.40
2023-02-16T21:41:25.734Z,97325.20
2023-02-16T21:44:08.546Z,97320.60
2023-02-16T21:46:44.469Z,97322.60
2023-02-16T21:49:17.242Z,97314.20
2023-02-16T21:51:46.470Z,97315.00
2023-02-16T21:54:16.418Z,97312.00
2023-02-16T21:56:47.932Z,97309.00
2023-02-16T21:59:17.104Z,97312.60
2023-02-16T22:01:47.904Z,97307.40
2023-02-16T22:04:17.425Z,97307.80
2023-02-16T22:06:46.831Z,97316.60
2023-02-16T22:09:17.904Z,97319.80
2023-02-16T22:11:46.271Z,97319.00
2023-02-16T22:14:14.587Z,97318.60
2023-02-16T22:16:44.292Z,97319.60
2023-02-16T22:19:13.499Z,97319.20
2023-02-16T22:21:42.471Z,97323.00
2023-02-16T22:24:12.076Z,97325.20
2023-02-16T22:26:40.252Z,97329.00
2023-02-16T22:29:08.820Z,97326.40
2023-02-16T22:31:37.310Z,97327.40
2023-02-16T22:34:09.786Z,97329.60
2023-02-16T22:36:38.109Z,97332.00
2023-02-16T22:39:06.539Z,97333.00
2023-02-16T22:41:35.029Z,97329.40
2023-02-16T22:44:03.398Z,97328.20
2023-02-16T22:46:31.499Z,97332.20
2023-02-16T22:48:59.713Z,97336.80
2023-02-16T22:51:29.624Z,97338.60
2023-02-16T22:53:58.147Z,97340.40
2023-02-16T22:56:27.108Z,97334.20
2023-02-16T22:58:57.464Z,97336.20
2023-02-16T23:01:27.777Z,97340.20
2023-02-16T23:03:57.536Z,97339.00
2023-02-16T23:06:29.673Z,97331.20
2023-02-16T23:09:00.216Z,97332.60
2023-02-16T23:11:28.451Z,97335.60
2023-02-16T23:13:56.858Z,97339.20
2023-02-16T23:16:25.862Z,97335.60
2023-02-16T23:18:57.568Z,97338.40
2023-02-16T23:21:26.560Z,97333.00
2023-02-16T23:23:55.182Z,97329.20
2023-02-16T23:26:26.531Z,97327.80
2023-02-16T23:28:57.725Z,97318.40
2023-02-16T23:31:25.944Z,97324.20
2023-02-16T23:33:56.189Z,97325.20
2023-02-16T23:36:25.586Z,97321.60
2023-02-16T23:38:53.587Z,97319.20
2023-02-16T23:41:21.741Z,97315.40
2023-02-16T23:43:49.894Z,97304.00
2023-02-16T23:46:18.016Z,97310.80
2023-02-16T23:48:46.243Z,97314.20
2023-02-16T23:51:14.622Z,97311.00
2023-02-16T23:53:45.669Z,97313.60
2023-02-16T23:56:21.811Z,97313.60
2023-02-16T23:58:50.061Z,97313.00
